createdAt,value
2022-11-21T00:01:49.974Z,99537.36
2022-11-21T00:04:55.348Z,99533.91
2022-11-21T00:08:01.375Z,99519.34
2022-11-21T00:11:06.961Z,99528.62
2022-11-21T00:14:13.199Z,99517.92
2022-11-21T00:17:19.404Z,99518.73
2022-11-21T00:20:25.947Z,99525.33
2022-11-21T00:23:33.737Z,99527.50
2022-11-21T00:26:39.391Z,99517.59
2022-11-21T00:29:45.762Z,99516.15
2022-11-21T00:32:50.725Z,99506.20
2022-11-21T00:35:56.470Z,99495.77
2022-11-21T00:39:02.028Z,99495.41
2022-11-21T00:42:07.573Z,99500.99
2022-11-21T00:45:13.779Z,99485.45
2022-11-21T00:48:18.743Z,99478.52
2022-11-21T00:51:25.073Z,99476.13
2022-11-21T00:54:30.418Z,99468.08
2022-11-21T00:57:36.454Z,99477.52
2022-11-21T01:00:42.509Z,99475.31
2022-11-21T01:03:49.446Z,99486.63
2022-11-21T01:06:56.206Z,99486.25
2022-11-21T01:10:02.401Z,99481.53
2022-11-21T01:13:08.560Z,99480.73
2022-11-21T01:16:27.322Z,99481.31
2022-11-21T01:19:32.867Z,99473.48
2022-11-21T01:22:38.747Z,99461.94
2022-11-21T01:25:44.627Z,99476.37
2022-11-21T01:28:50.775Z,99483.16
2022-11-21T01:31:57.393Z,99469.29
2022-11-21T01:35:02.595Z,99461.77
2022-11-21T01:38:08.466Z,99465.20
2022-11-21T01:41:15.017Z,99471.55
2022-11-21T01:44:35.540Z,99477.24
2022-11-21T01:47:29.319Z,99473.03
2022-11-21T01:50:35.743Z,99476.72
2022-11-21T01:53:41.584Z,99496.25
2022-11-21T01:56:54.535Z,99506.00
2022-11-21T02:00:16.330Z,99505.91
2022-11-21T02:03:26.644Z,99482.48
2022-11-21T02:06:33.486Z,99488.91
2022-11-21T02:09:39.807Z,99485.25
2022-11-21T02:13:05.110Z,99484.14
2022-11-21T02:16:11.154Z,99483.02
2022-11-21T02:19:17.397Z,99486.30
2022-11-21T02:22:28.687Z,99486.05
2022-11-21T02:25:44.144Z,99481.09
2022-11-21T02:28:50.203Z,99483.03
2022-11-21T02:31:55.571Z,99486.91
2022-11-21T02:35:02.711Z,99487.03
2022-11-21T02:38:20.219Z,99480.19
2022-11-21T02:41:36.820Z,99464.94
2022-11-21T02:44:49.832Z,99472.43
2022-11-21T02:48:03.456Z,99475.50
2022-11-21T02:51:05.625Z,99472.04
2022-11-21T02:54:05.088Z,99466.52
2022-11-21T02:56:51.488Z,99462.72
2022-11-21T02:59:44.722Z,99465.84
2022-11-21T03:02:31.382Z,99456.15
2022-11-21T03:05:26.556Z,99451.51
2022-11-21T03:08:19.232Z,99455.66
2022-11-21T03:11:17.896Z,99463.25
2022-11-21T03:14:24.458Z,99465.69
2022-11-21T03:17:30.603Z,99467.55
2022-11-21T03:20:35.983Z,99465.89
2022-11-21T03:23:42.153Z,99465.44
2022-11-21T03:26:47.759Z,99461.15
2022-11-21T03:29:53.890Z,99463.03
2022-11-21T03:33:00.221Z,99465.90
2022-11-21T03:36:06.379Z,99471.50
2022-11-21T03:39:11.743Z,99477.72
2022-11-21T03:42:11.947Z,99471.07
2022-11-21T03:45:18.491Z,99482.66
2022-11-21T03:48:24.234Z,99469.67
2022-11-21T03:51:29.959Z,99467.60
2022-11-21T03:54:35.662Z,99473.52
2022-11-21T03:57:42.154Z,99481.84
2022-11-21T04:00:48.750Z,99483.59
2022-11-21T04:03:56.416Z,99484.13
2022-11-21T04:07:04.004Z,99474.23
2022-11-21T04:10:09.657Z,99476.13
2022-11-21T04:13:16.830Z,99473.05
2022-11-21T04:16:22.349Z,99476.15
2022-11-21T04:19:28.563Z,99460.55
2022-11-21T04:22:35.657Z,99459.09
2022-11-21T04:25:34.953Z,99461.99
2022-11-21T04:28:40.067Z,99465.59
2022-11-21T04:31:46.903Z,99468.78
2022-11-21T04:34:54.400Z,99462.99
2022-11-21T04:37:55.108Z,99464.67
2022-11-21T04:40:41.091Z,99455.16
2022-11-21T04:43:40.701Z,99462.02
2022-11-21T04:46:46.550Z,99458.56
2022-11-21T04:49:52.272Z,99465.89
2022-11-21T04:53:01.690Z,99474.27
2022-11-21T04:56:08.157Z,99471.73
2022-11-21T04:59:13.584Z,99468.76
2022-11-21T05:02:13.019Z,99471.62
2022-11-21T05:04:58.771Z,99478.31
2022-11-21T05:07:51.862Z,99479.79
2022-11-21T05:10:39.538Z,99473.45
2022-11-21T05:13:32.885Z,99482.05
2022-11-21T05:16:32.332Z,99475.52
2022-11-21T05:19:37.935Z,99476.80
2022-11-21T05:22:44.977Z,99479.95
2022-11-21T05:25:50.659Z,99474.58
2022-11-21T05:28:55.682Z,99480.58
2022-11-21T05:32:02.243Z,99481.73
2022-11-21T05:35:08.629Z,99481.09
2022-11-21T05:38:13.884Z,99477.52
2022-11-21T05:41:19.820Z,99473.28
2022-11-21T05:44:25.597Z,99472.27
2022-11-21T05:47:31.814Z,99464.16
2022-11-21T05:50:37.616Z,99462.70
2022-11-21T05:53:44.240Z,99468.45
2022-11-21T05:56:49.602Z,99467.63
2022-11-21T05:59:54.698Z,99468.27
2022-11-21T06:03:20.937Z,99466.52
2022-11-21T06:06:30.129Z,99469.16
2022-11-21T06:09:36.820Z,99477.52
2022-11-21T06:12:42.575Z,99478.35
2022-11-21T06:15:47.881Z,99474.61
2022-11-21T06:18:58.547Z,99480.93
2022-11-21T06:22:04.412Z,99478.42
2022-11-21T06:25:13.007Z,99487.23
2022-11-21T06:28:18.745Z,99485.52
2022-11-21T06:31:30.741Z,99491.45
2022-11-21T06:34:35.983Z,99492.91
2022-11-21T06:37:41.019Z,99488.69
2022-11-21T06:40:46.178Z,99477.91
2022-11-21T06:43:51.480Z,99470.69
2022-11-21T06:46:57.405Z,99464.42
2022-11-21T06:50:03.416Z,99472.38
2022-11-21T06:53:10.794Z,99468.27
2022-11-21T06:56:17.281Z,99479.21
2022-11-21T06:59:22.267Z,99488.05
2022-11-21T07:02:28.690Z,99477.13
2022-11-21T07:05:33.601Z,99478.23
2022-11-21T07:08:40.632Z,99475.42
2022-11-21T07:11:46.452Z,99484.69
2022-11-21T07:14:55.138Z,99484.83
2022-11-21T07:31:47.753Z,99495.92
2022-11-21T07:34:53.479Z,99489.86
2022-11-21T07:38:00.293Z,99485.91
2022-11-21T07:41:06.409Z,99500.11
2022-11-21T07:44:11.880Z,99498.14
2022-11-21T07:47:18.061Z,99499.53
2022-11-21T07:50:24.771Z,99497.96
2022-11-21T07:53:31.549Z,99493.90
2022-11-21T07:56:36.670Z,99501.66
2022-11-21T07:59:42.904Z,99489.86
2022-11-21T08:02:48.327Z,99501.34
2022-11-21T08:05:54.991Z,99501.20
2022-11-21T08:08:55.534Z,99508.11
2022-11-21T08:12:01.248Z,99509.00
2022-11-21T08:15:06.777Z,99509.45
2022-11-21T08:18:12.317Z,99515.42
2022-11-21T08:21:20.321Z,99521.05
2022-11-21T08:24:26.051Z,99525.56
2022-11-21T08:27:31.120Z,99514.33
2022-11-21T08:30:36.613Z,99502.95
2022-11-21T08:33:41.819Z,99493.04
2022-11-21T08:36:47.206Z,99495.95
2022-11-21T08:39:52.799Z,99504.40
2022-11-21T08:42:58.405Z,99504.09
2022-11-21T08:46:03.277Z,99500.44
2022-11-21T08:49:09.799Z,99505.08
2022-11-21T08:52:15.130Z,99506.02
2022-11-21T08:55:23.692Z,99505.05
2022-11-21T08:58:28.576Z,99504.79
2022-11-21T09:01:34.474Z,99500.69
2022-11-21T09:04:40.184Z,99494.14
2022-11-21T09:07:47.716Z,99478.20
2022-11-21T09:10:53.683Z,99474.37
2022-11-21T09:14:17.554Z,99474.49
2022-11-21T09:17:44.890Z,99484.50
2022-11-21T09:20:56.224Z,99498.08
2022-11-21T09:24:01.070Z,99501.80
2022-11-21T09:27:07.383Z,99500.05
2022-11-21T09:30:13.926Z,99482.81
2022-11-21T09:33:23.256Z,99494.75
2022-11-21T09:36:29.185Z,99499.48
2022-11-21T09:39:35.457Z,99501.27
2022-11-21T09:42:54.972Z,99485.03
2022-11-21T09:46:02.556Z,99470.92
2022-11-21T09:49:15.912Z,99465.56
2022-11-21T09:52:23.667Z,99453.19
2022-11-21T09:55:54.034Z,99452.97
2022-11-21T09:59:15.423Z,99457.17
2022-11-21T13:26:48.960Z,99319.94
2022-11-21T13:29:54.782Z,99321.90
2022-11-21T13:33:06.219Z,99318.39
2022-11-21T13:36:11.847Z,99325.41
2022-11-21T13:39:22.353Z,99315.19
2022-11-21T13:42:58.364Z,99309.93
2022-11-21T13:46:06.852Z,99306.05
2022-11-21T13:49:19.573Z,99304.20
2022-11-21T13:52:38.782Z,99302.83
2022-11-21T13:56:06.192Z,99303.78
2022-11-21T13:59:52.382Z,99290.48
2022-11-21T14:03:30.137Z,99288.92
2022-11-21T14:06:53.338Z,99280.72
2022-11-21T14:10:03.429Z,99269.06
2022-11-21T14:13:08.736Z,99266.97
2022-11-21T14:16:40.237Z,99261.94
2022-11-21T14:19:46.057Z,99254.84
2022-11-21T14:23:15.754Z,99239.13
2022-11-21T14:26:28.498Z,99233.53
2022-11-21T14:29:43.352Z,99228.67
2022-11-21T14:32:53.910Z,99235.36
2022-11-21T14:35:55.253Z,99229.84
2022-11-21T14:39:35.821Z,99226.70
2022-11-21T14:42:22.364Z,99219.36
2022-11-21T14:45:33.823Z,99223.28
2022-11-21T14:48:47.147Z,99210.03
2022-11-21T14:51:52.925Z,99212.59
2022-11-21T14:55:29.294Z,99211.45
2022-11-21T14:58:17.339Z,99208.86
2022-11-21T15:01:34.433Z,99198.55
2022-11-21T15:04:49.473Z,99193.49
2022-11-21T15:08:17.164Z,99193.61
2022-11-21T15:11:05.814Z,99177.86
2022-11-21T15:14:16.766Z,99173.73
2022-11-21T15:17:28.018Z,99169.87
2022-11-21T15:20:34.852Z,99160.47
2022-11-21T15:23:51.714Z,99153.02
2022-11-21T15:26:58.315Z,99152.16
2022-11-21T15:30:28.365Z,99146.66
2022-11-21T15:33:34.351Z,99146.75
2022-11-21T15:36:40.165Z,99143.38
2022-11-21T15:39:46.504Z,99137.96
2022-11-21T15:42:51.375Z,99150.27
2022-11-21T15:45:57.072Z,99162.76
2022-11-21T15:52:15.226Z,99162.11
2022-11-21T15:55:25.420Z,99164.97
2022-11-21T15:57:13.948Z,99149.41
2022-11-21T15:58:33.161Z,99163.66
2022-11-21T16:01:41.779Z,99160.25
2022-11-21T16:04:47.327Z,99156.22
2022-11-21T16:07:54.188Z,99152.31
2022-11-21T16:11:00.468Z,99161.01
2022-11-21T16:14:10.683Z,99161.02
2022-11-21T16:17:16.314Z,99158.18
2022-11-21T16:20:23.266Z,99157.88
2022-11-21T16:23:29.524Z,99164.27
2022-11-21T16:26:37.993Z,99151.25
2022-11-21T16:29:43.244Z,99138.48
2022-11-21T16:32:49.148Z,99135.03
2022-11-21T16:35:55.593Z,99125.69
2022-11-21T16:39:06.865Z,99127.00
2022-11-21T16:42:07.662Z,99122.56
2022-11-21T16:45:12.868Z,99121.57
2022-11-21T16:48:19.008Z,99114.72
2022-11-21T16:51:35.072Z,99108.84
2022-11-21T16:54:40.362Z,99101.91
2022-11-21T16:57:49.538Z,99102.89
2022-11-21T17:00:55.321Z,99098.33
2022-11-21T17:04:01.453Z,99097.16
2022-11-21T17:07:06.369Z,99092.34
2022-11-21T17:10:12.290Z,99097.15
2022-11-21T17:13:17.411Z,99090.23
2022-11-21T17:16:22.853Z,99098.30
2022-11-21T17:19:29.928Z,99096.41
2022-11-21T17:22:35.242Z,99093.81
2022-11-21T17:25:40.505Z,99097.45
2022-11-21T17:28:46.338Z,99095.04
2022-11-21T17:31:52.909Z,99092.08
2022-11-21T17:34:58.853Z,99089.16
2022-11-21T17:38:04.687Z,99096.16
2022-11-21T17:41:20.751Z,99097.73
2022-11-21T17:44:29.341Z,99090.99
2022-11-21T17:47:35.798Z,99100.50
2022-11-21T17:50:40.613Z,99096.08
2022-11-21T17:53:50.561Z,99087.47
2022-11-21T17:56:57.139Z,99078.69
2022-11-21T18:00:03.383Z,99074.71
2022-11-21T18:03:10.673Z,99076.07
2022-11-21T18:06:23.451Z,99081.17
2022-11-21T18:09:29.429Z,99075.00
2022-11-21T18:12:34.764Z,99075.42
2022-11-21T18:15:40.399Z,99065.93
2022-11-21T18:18:46.532Z,99074.48
2022-11-21T18:21:52.588Z,99072.09
2022-11-21T18:24:57.706Z,99083.10
2022-11-21T18:28:03.257Z,99092.73
2022-11-21T18:31:07.845Z,99094.45
2022-11-21T18:34:15.100Z,99080.98
2022-11-21T18:37:20.116Z,99078.84
2022-11-21T18:40:27.701Z,99078.73
2022-11-21T18:43:32.651Z,99080.74
2022-11-21T18:46:37.743Z,99085.07
2022-11-21T18:49:42.879Z,99076.47
2022-11-21T18:52:48.392Z,99068.13
2022-11-21T18:55:54.803Z,99068.31
2022-11-21T18:59:00.379Z,99073.88
2022-11-21T19:02:05.648Z,99061.27
2022-11-21T19:05:13.960Z,99064.16
2022-11-21T19:08:18.532Z,99055.15
2022-11-21T19:11:26.598Z,99058.59
2022-11-21T19:14:31.870Z,99060.81
2022-11-21T19:17:36.515Z,99057.66
2022-11-21T22:23:56.410Z,98962.22
2022-11-21T22:27:37.659Z,98959.92
2022-11-21T22:30:55.782Z,98975.45
2022-11-21T22:38:17.493Z,98984.61
2022-11-21T22:41:59.680Z,98967.18
2022-11-21T22:45:37.203Z,98988.95
2022-11-21T22:49:00.912Z,98998.22
2022-11-21T22:52:05.867Z,98994.93
2022-11-21T22:55:11.161Z,98973.63
2022-11-21T22:58:16.058Z,98977.86
2022-11-21T23:01:27.161Z,98987.36
2022-11-21T23:04:33.365Z,98993.45
2022-11-21T23:07:39.292Z,98982.71
2022-11-21T23:10:44.368Z,98991.15
2022-11-21T23:13:49.822Z,99008.28
2022-11-21T23:16:55.270Z,99005.52
2022-11-21T23:20:00.832Z,98994.03
2022-11-21T23:23:06.244Z,98985.80
2022-11-21T23:26:11.537Z,98992.91
2022-11-21T23:29:17.226Z,98993.40
2022-11-21T23:32:22.152Z,98992.34
2022-11-21T23:35:27.423Z,99001.04
2022-11-21T23:38:32.874Z,99009.91
2022-11-21T23:41:38.409Z,99009.43
2022-11-21T23:44:44.617Z,98994.07
2022-11-21T23:47:50.842Z,98998.39
2022-11-21T23:50:59.248Z,99013.09
2022-11-21T23:54:04.484Z,99039.91
2022-11-21T23:57:09.920Z,99034.64
